Time;durP1;ratioP1;P1;durP2;ratioP2;P2;SDS_P1;SDS_P2;PMS_P1;PMS_P2;Temp;Humidity;BMP_temperature;BMP_pressure;BME280_temperature;BME280_humidity;BME280_pressure;Samples;Min_cycle;Max_cycle;Signal;HPM_P1;HPM_P2
2022/09/24 00:02:37;;;;;;;3.67;2.00;;;17.30;99.90;;;;;;1906662;75;21549;-81
2022/09/24 00:08:09;;;;;;;3.08;1.60;;;17.20;99.90;;;;;;1945722;72;22176;-81
2022/09/24 00:11:03;;;;;;;3.85;1.77;;;17.20;99.90;;;;;;1906578;75;21099;-81
2022/09/24 00:13:56;;;;;;;3.55;1.80;;;17.20;99.90;;;;;;1884850;75;21112;-81
2022/09/24 00:16:47;;;;;;;3.20;1.52;;;17.10;99.90;;;;;;1887218;75;21599;-81
2022/09/24 00:19:38;;;;;;;3.85;1.55;;;17.00;99.90;;;;;;1906059;75;21086;-81
2022/09/24 00:22:32;;;;;;;3.75;2.08;;;17.00;99.90;;;;;;1906570;75;21075;-81
2022/09/24 00:28:46;;;;;;;3.20;2.10;;;16.90;99.90;;;;;;1882385;75;21102;-81
2022/09/24 00:31:39;;;;;;;4.50;1.75;;;16.90;99.90;;;;;;1884533;75;21113;-81
2022/09/24 00:34:31;;;;;;;3.35;1.87;;;16.80;99.90;;;;;;1896640;75;21535;-81
2022/09/24 00:37:22;;;;;;;3.42;1.80;;;16.80;99.90;;;;;;1896315;75;21090;-82
2022/09/24 00:40:14;;;;;;;2.70;1.82;;;16.90;99.90;;;;;;1895026;75;21126;-82
2022/09/24 00:43:27;;;;;;;2.22;1.72;;;16.90;99.90;;;;;;1884742;75;21121;-82
2022/09/24 00:49:07;;;;;;;3.10;1.90;;;17.10;99.90;;;;;;1928005;72;28040;-81
2022/09/24 00:51:59;;;;;;;3.02;1.90;;;17.20;99.90;;;;;;1887710;74;21172;-81
2022/09/24 00:54:50;;;;;;;3.05;2.00;;;17.20;99.90;;;;;;1887423;75;21066;-83
2022/09/24 00:57:44;;;;;;;2.92;1.90;;;17.10;99.90;;;;;;1898139;75;21123;-81
2022/09/24 01:00:36;;;;;;;4.45;2.20;;;17.10;99.90;;;;;;1897017;73;21203;-81
2022/09/24 01:03:30;;;;;;;6.30;2.20;;;17.10;99.90;;;;;;1903248;75;21113;-81
2022/09/24 01:06:22;;;;;;;4.20;2.40;;;17.00;99.90;;;;;;1901887;75;21084;-81
2022/09/24 01:09:13;;;;;;;3.30;2.35;;;16.80;99.90;;;;;;1895829;75;21142;-81
2022/09/24 01:12:08;;;;;;;3.33;2.22;;;16.80;99.90;;;;;;1895787;75;21577;-81
2022/09/24 01:15:07;;;;;;;4.08;2.62;;;16.70;99.90;;;;;;1895606;75;21135;-81
2022/09/24 01:18:02;;;;;;;4.08;2.55;;;16.60;99.90;;;;;;1896594;75;21062;-81
2022/09/24 01:21:04;;;;;;;4.47;2.30;;;16.60;99.90;;;;;;1906715;75;21110;-81
2022/09/24 01:24:12;;;;;;;3.95;2.08;;;16.50;99.90;;;;;;1884595;75;21122;-81
2022/09/24 01:27:08;;;;;;;7.05;2.55;;;16.40;99.90;;;;;;1894990;75;21191;-81
2022/09/24 01:30:04;;;;;;;5.58;2.65;;;16.40;99.90;;;;;;1901757;75;21528;-81
2022/09/24 01:32:59;;;;;;;4.08;2.50;;;16.30;99.90;;;;;;1900884;75;21066;-83
2022/09/24 01:35:54;;;;;;;5.87;2.40;;;16.30;99.90;;;;;;1895657;75;21133;-83
2022/09/24 01:38:47;;;;;;;4.78;2.37;;;16.30;99.90;;;;;;1905085;75;21105;-82
2022/09/24 01:41:41;;;;;;;5.22;3.00;;;16.30;99.90;;;;;;1906292;75;21063;-82
2022/09/24 01:44:34;;;;;;;3.80;2.47;;;16.20;99.90;;;;;;1900571;75;21108;-82
2022/09/24 01:47:29;;;;;;;3.08;2.40;;;16.20;99.90;;;;;;1896015;75;21134;-82
2022/09/24 01:50:24;;;;;;;6.70;2.72;;;16.20;99.90;;;;;;1892296;75;21101;-82
2022/09/24 01:53:19;;;;;;;4.83;2.70;;;16.10;99.90;;;;;;1917000;75;21103;-81
2022/09/24 01:56:14;;;;;;;4.50;3.00;;;16.10;99.90;;;;;;1917353;75;21059;-81
2022/09/24 01:59:09;;;;;;;4.20;2.70;;;16.10;99.90;;;;;;1901171;75;21129;-81
2022/09/24 02:02:03;;;;;;;4.12;3.05;;;16.00;99.90;;;;;;1895456;75;21094;-81
2022/09/24 02:04:59;;;;;;;3.47;2.92;;;16.00;99.90;;;;;;1894544;75;21545;-81
2022/09/24 02:07:57;;;;;;;5.05;3.17;;;16.00;99.90;;;;;;1905516;75;21139;-81
2022/09/24 02:10:51;;;;;;;3.27;2.85;;;16.10;99.90;;;;;;1884202;76;21059;-81
2022/09/24 02:13:45;;;;;;;5.20;3.33;;;16.10;99.90;;;;;;1900588;75;21106;-81
2022/09/24 02:16:39;;;;;;;3.40;2.80;;;16.10;99.90;;;;;;1896008;75;21605;-82
2022/09/24 02:19:33;;;;;;;3.87;2.80;;;16.10;99.90;;;;;;1895148;75;21086;-82
2022/09/24 02:22:26;;;;;;;4.37;2.37;;;16.10;99.90;;;;;;1894668;75;21161;-82
2022/09/24 02:25:20;;;;;;;4.90;2.40;;;16.10;99.90;;;;;;1897811;75;21168;-82
2022/09/24 02:28:11;;;;;;;3.37;2.58;;;16.10;99.90;;;;;;1898789;75;21134;-82
2022/09/24 02:31:07;;;;;;;4.30;2.58;;;16.10;99.90;;;;;;1885161;75;21093;-81
2022/09/24 02:37:12;;;;;;;5.97;3.10;;;16.10;99.90;;;;;;1910833;75;21195;-82
2022/09/24 02:40:05;;;;;;;4.75;3.17;;;16.10;99.90;;;;;;1894831;75;21556;-81
2022/09/24 02:42:57;;;;;;;4.08;2.90;;;16.10;99.90;;;;;;1899673;75;21572;-82
2022/09/24 02:45:49;;;;;;;3.45;2.98;;;16.20;99.90;;;;;;1887435;73;21054;-82
2022/09/24 02:48:40;;;;;;;5.12;3.12;;;16.10;99.90;;;;;;1891916;74;21160;-82
2022/09/24 02:51:32;;;;;;;4.92;3.20;;;16.20;99.90;;;;;;1882831;75;21567;-82
2022/09/24 02:54:24;;;;;;;4.25;3.47;;;16.20;99.90;;;;;;1886407;75;21054;-82
2022/09/24 02:57:16;;;;;;;5.65;3.58;;;16.20;99.90;;;;;;1885523;75;21088;-81
2022/09/24 03:00:10;;;;;;;5.70;3.37;;;16.30;99.90;;;;;;1882510;75;21094;-81
2022/09/24 03:03:01;;;;;;;5.08;3.33;;;16.20;99.90;;;;;;1893899;75;21067;-82
2022/09/24 03:05:53;;;;;;;5.42;3.42;;;16.30;99.90;;;;;;1892853;75;21059;-82
2022/09/24 03:08:45;;;;;;;4.37;3.20;;;16.20;99.90;;;;;;1889291;75;21184;-82
2022/09/24 03:11:37;;;;;;;5.35;3.90;;;16.20;99.90;;;;;;1893889;75;21647;-82
2022/09/24 03:14:29;;;;;;;4.03;3.62;;;16.00;99.90;;;;;;1893927;75;21164;-81
2022/09/24 03:17:20;;;;;;;4.42;3.85;;;15.90;99.90;;;;;;1877571;75;21110;-81
2022/09/24 03:20:12;;;;;;;4.45;3.98;;;15.80;99.90;;;;;;1900621;75;21506;-81
2022/09/24 03:23:04;;;;;;;4.95;3.95;;;15.80;99.90;;;;;;1895033;75;21109;-81
2022/09/24 03:25:56;;;;;;;6.05;4.45;;;15.80;99.90;;;;;;1895104;75;21171;-81
2022/09/24 03:28:49;;;;;;;5.60;4.10;;;15.80;99.90;;;;;;1894469;75;21173;-81
2022/09/24 03:31:43;;;;;;;5.72;4.65;;;15.80;99.90;;;;;;1916361;73;21120;-81
2022/09/24 03:34:34;;;;;;;6.30;4.47;;;15.80;99.90;;;;;;1897161;75;21052;-81
2022/09/24 03:37:26;;;;;;;5.50;4.50;;;15.80;99.90;;;;;;1894713;75;21117;-81
2022/09/24 03:40:17;;;;;;;4.95;4.10;;;15.80;99.90;;;;;;1895066;75;21051;-83
2022/09/24 03:43:10;;;;;;;5.28;4.55;;;15.70;99.90;;;;;;1897734;75;21118;-82
2022/09/24 03:46:06;;;;;;;5.17;4.22;;;15.60;99.90;;;;;;1887232;75;21121;-82
2022/09/24 03:48:59;;;;;;;5.50;5.00;;;15.60;99.90;;;;;;1847424;77;21055;-87
2022/09/24 03:51:50;;;;;;;5.72;5.00;;;15.70;99.90;;;;;;1843311;77;21317;-86
2022/09/24 03:54:42;;;;;;;5.67;4.80;;;15.70;99.90;;;;;;1894954;75;21167;-87
2022/09/24 03:57:33;;;;;;;5.30;4.72;;;15.70;99.90;;;;;;1898822;75;21105;-86
2022/09/24 04:00:26;;;;;;;7.78;4.67;;;15.70;99.90;;;;;;1895873;74;21056;-86
2022/09/24 04:03:17;;;;;;;5.92;4.67;;;15.80;99.90;;;;;;1906104;75;21151;-86
2022/09/24 04:06:09;;;;;;;6.28;5.33;;;15.80;99.90;;;;;;1915093;75;21050;-86
2022/09/24 04:09:01;;;;;;;5.67;5.17;;;15.70;99.90;;;;;;1902750;75;21059;-87
2022/09/24 04:11:54;;;;;;;6.22;5.05;;;15.80;99.90;;;;;;1897863;75;21044;-87
2022/09/24 04:14:45;;;;;;;5.78;5.25;;;15.70;99.90;;;;;;1894814;75;21184;-86
2022/09/24 04:20:18;;;;;;;5.87;4.85;;;15.60;99.90;;;;;;1976149;72;22531;-86
2022/09/24 04:23:10;;;;;;;5.55;5.05;;;15.60;99.90;;;;;;1917607;75;21151;-86
2022/09/24 04:26:02;;;;;;;6.30;5.47;;;15.60;99.90;;;;;;1917538;75;21063;-85
2022/09/24 04:28:53;;;;;;;6.60;4.92;;;15.60;99.90;;;;;;1939919;73;21151;-85
2022/09/24 04:31:45;;;;;;;6.78;5.20;;;15.50;99.90;;;;;;1917134;73;21157;-86
2022/09/24 04:34:37;;;;;;;6.35;5.70;;;15.50;99.90;;;;;;1917754;75;21158;-86
2022/09/24 04:37:28;;;;;;;6.58;5.97;;;15.50;99.90;;;;;;1925980;73;21050;-86
2022/09/24 04:40:20;;;;;;;6.72;6.10;;;15.50;99.90;;;;;;1928819;73;21064;-86
2022/09/24 04:43:12;;;;;;;6.80;6.00;;;15.60;99.90;;;;;;1930890;73;21102;-86
2022/09/24 04:46:04;;;;;;;7.58;6.70;;;15.60;99.90;;;;;;1917653;75;21061;-86
2022/09/24 04:48:56;;;;;;;7.67;5.95;;;15.70;99.90;;;;;;1940527;73;21066;-86
2022/09/24 04:51:48;;;;;;;6.25;5.62;;;15.70;99.90;;;;;;1917621;75;21533;-85
2022/09/24 04:54:39;;;;;;;6.78;5.72;;;15.80;99.90;;;;;;1917611;75;21179;-86
2022/09/24 04:57:33;;;;;;;8.18;6.20;;;15.80;99.90;;;;;;1917697;75;21129;-86
2022/09/24 05:00:25;;;;;;;7.72;6.72;;;15.80;99.90;;;;;;1917345;75;21125;-86
2022/09/24 05:03:17;;;;;;;6.05;5.45;;;15.80;99.90;;;;;;1919997;73;21039;-87
2022/09/24 05:06:08;;;;;;;5.80;5.30;;;15.80;99.90;;;;;;1928669;73;21140;-86
2022/09/24 05:09:00;;;;;;;6.65;5.92;;;15.80;99.90;;;;;;1931646;73;21102;-86
2022/09/24 05:11:52;;;;;;;6.58;5.83;;;15.80;99.90;;;;;;1917589;75;21134;-86
2022/09/24 05:14:43;;;;;;;6.65;5.97;;;15.80;99.90;;;;;;1917148;75;21124;-87
2022/09/24 05:17:37;;;;;;;6.25;5.65;;;15.80;99.90;;;;;;1916136;75;21122;-86
2022/09/24 05:20:29;;;;;;;6.28;5.67;;;15.80;99.90;;;;;;1915527;74;21156;-86
2022/09/24 05:23:20;;;;;;;6.03;5.33;;;15.80;99.90;;;;;;1867187;76;21133;-86
2022/09/24 05:29:20;;;;;;;6.20;5.47;;;15.90;99.90;;;;;;1920173;74;21105;-89
2022/09/24 05:32:14;;;;;;;8.18;5.92;;;15.90;99.90;;;;;;1928857;74;21052;-87
2022/09/24 05:35:08;;;;;;;5.62;5.12;;;15.80;99.90;;;;;;1913628;74;21055;-87
2022/09/24 05:37:59;;;;;;;5.95;5.45;;;15.90;99.90;;;;;;1914525;74;21164;-86
2022/09/24 05:57:35;;;;;;;6.83;6.17;;;15.90;99.90;;;;;;1958488;72;22140;-86
2022/09/24 06:00:28;;;;;;;6.75;6.15;;;16.00;99.90;;;;;;1925647;73;21127;-86
2022/09/24 06:03:21;;;;;;;7.10;6.40;;;16.00;99.90;;;;;;1917527;75;21102;-86
2022/09/24 06:06:13;;;;;;;6.42;5.83;;;16.00;99.90;;;;;;1917705;75;21517;-87
2022/09/24 06:09:07;;;;;;;7.22;6.53;;;16.00;99.90;;;;;;1937808;73;21042;-87
2022/09/24 06:12:03;;;;;;;6.87;6.28;;;16.00;99.90;;;;;;1935783;73;21146;-88
2022/09/24 06:14:54;;;;;;;8.80;7.90;;;16.00;99.90;;;;;;1917430;75;21079;-82
2022/09/24 06:17:45;;;;;;;6.83;6.10;;;16.00;99.90;;;;;;1917473;75;21050;-81
2022/09/24 06:20:37;;;;;;;6.60;6.00;;;16.10;99.90;;;;;;1917532;75;21051;-82
2022/09/24 06:23:29;;;;;;;6.53;5.62;;;16.10;99.90;;;;;;1917616;75;21109;-81
2022/09/24 06:26:21;;;;;;;6.65;6.05;;;16.10;99.90;;;;;;1917608;75;21048;-82
2022/09/24 06:31:54;;;;;;;6.78;5.90;;;16.10;99.90;;;;;;1953573;72;22189;-81
2022/09/24 06:34:45;;;;;;;6.22;5.53;;;16.10;99.90;;;;;;1917767;75;21140;-81
2022/09/24 06:37:39;;;;;;;6.97;5.90;;;16.10;99.90;;;;;;1917706;75;21159;-81
2022/09/24 06:40:30;;;;;;;6.45;5.85;;;16.20;99.90;;;;;;1940042;73;21566;-81
2022/09/24 06:46:04;;;;;;;6.47;5.87;;;16.20;99.90;;;;;;1956350;72;22208;-81
2022/09/24 06:48:55;;;;;;;6.40;5.80;;;16.20;99.90;;;;;;1895704;74;21188;-81
2022/09/24 06:51:47;;;;;;;6.80;6.10;;;16.20;99.90;;;;;;1912587;75;21059;-81
2022/09/24 06:54:39;;;;;;;7.08;6.47;;;16.30;99.90;;;;;;1906683;75;21137;-81
2022/09/24 06:57:30;;;;;;;6.95;6.28;;;16.30;99.90;;;;;;1901158;75;21125;-81
2022/09/24 07:00:21;;;;;;;6.85;6.10;;;16.40;99.90;;;;;;1895324;75;21475;-81
2022/09/24 07:03:17;;;;;;;5.75;5.25;;;16.40;99.90;;;;;;1906921;75;21050;-81
2022/09/24 07:06:08;;;;;;;6.28;5.67;;;16.50;99.90;;;;;;1884585;75;21163;-81
2022/09/24 07:09:06;;;;;;;5.78;5.28;;;16.40;99.90;;;;;;1904853;75;21051;-81
2022/09/24 07:12:07;;;;;;;6.30;5.70;;;16.40;99.90;;;;;;1899474;75;21114;-81
2022/09/24 07:15:06;;;;;;;5.40;4.90;;;16.50;99.90;;;;;;1917804;75;21044;-81
2022/09/24 07:17:59;;;;;;;4.90;4.50;;;16.40;99.90;;;;;;1895558;75;21168;-83
2022/09/24 07:20:54;;;;;;;5.50;5.00;;;16.40;99.90;;;;;;1913829;75;21130;-83
2022/09/24 07:23:46;;;;;;;6.30;5.55;;;16.30;99.90;;;;;;1905976;75;21076;-82
2022/09/24 07:26:38;;;;;;;6.08;5.47;;;16.30;99.90;;;;;;1900751;75;21119;-81
2022/09/24 07:29:29;;;;;;;6.28;5.55;;;16.30;99.90;;;;;;1884340;76;21149;-82
2022/09/24 07:32:36;;;;;;;5.50;5.00;;;16.30;99.90;;;;;;1884725;75;21058;-81
2022/09/24 07:35:28;;;;;;;5.87;5.30;;;16.30;99.90;;;;;;1808180;79;21160;-82
2022/09/24 07:38:21;;;;;;;6.03;5.42;;;16.40;99.90;;;;;;1809246;79;21284;-82
2022/09/24 07:41:12;;;;;;;5.85;5.35;;;16.40;99.90;;;;;;1793090;79;21086;-82
2022/09/24 07:44:04;;;;;;;6.85;6.10;;;16.50;99.90;;;;;;1807285;79;21203;-82
2022/09/24 07:46:57;;;;;;;5.65;5.22;;;16.50;99.90;;;;;;1808457;79;21186;-81
2022/09/24 07:49:49;;;;;;;6.22;5.62;;;16.50;99.90;;;;;;1796650;79;21082;-82
2022/09/24 07:52:40;;;;;;;5.87;5.37;;;16.60;99.90;;;;;;1808727;79;21107;-81
2022/09/24 07:55:38;;;;;;;6.00;5.50;;;16.60;99.90;;;;;;1808927;79;21206;-82
2022/09/24 07:58:26;;;;;;;9.78;8.78;;;16.60;99.90;;;;;;1784480;79;21083;-81
2022/09/24 08:01:18;;;;;;;5.12;4.70;;;16.60;99.90;;;;;;1809929;78;21516;-82
2022/09/24 08:07:02;;;;;;;5.72;5.20;;;16.70;99.90;;;;;;1955457;72;22145;-83
2022/09/24 08:09:53;;;;;;;6.58;5.97;;;16.80;99.90;;;;;;1896045;74;21125;-83
2022/09/24 08:12:44;;;;;;;7.05;5.95;;;16.80;99.90;;;;;;1904981;75;21090;-84
2022/09/24 08:15:35;;;;;;;6.65;6.05;;;16.90;99.90;;;;;;1891038;75;21062;-83
2022/09/24 08:18:27;;;;;;;6.40;5.80;;;17.10;99.90;;;;;;1886644;75;21039;-85
2022/09/24 08:21:24;;;;;;;6.28;5.67;;;17.20;99.90;;;;;;1900349;75;21047;-85
2022/09/24 08:24:16;;;;;;;6.87;6.23;;;17.30;99.90;;;;;;1890828;75;21224;-81
2022/09/24 08:27:07;;;;;;;6.12;5.62;;;17.30;99.90;;;;;;1890562;75;21107;-82
2022/09/24 08:30:00;;;;;;;6.17;5.60;;;17.40;99.90;;;;;;1898195;75;21103;-81
2022/09/24 08:32:51;;;;;;;5.65;5.15;;;17.60;99.90;;;;;;1896490;75;21570;-81
2022/09/24 08:35:42;;;;;;;5.78;5.17;;;17.50;99.90;;;;;;1905906;75;21153;-82
2022/09/24 08:38:34;;;;;;;6.90;5.40;;;17.50;99.90;;;;;;1906787;75;21091;-82
2022/09/24 08:41:34;;;;;;;5.55;4.90;;;17.50;99.90;;;;;;1902646;75;21217;-82
2022/09/24 08:47:44;;;;;;;3.77;3.47;;;17.60;99.90;;;;;;1900271;75;21058;-83
2022/09/24 08:50:39;;;;;;;3.40;3.08;;;17.90;99.90;;;;;;1896262;75;21522;-84
2022/09/24 08:53:33;;;;;;;6.05;4.80;;;17.90;99.90;;;;;;1895369;75;21551;-83
2022/09/24 08:56:29;;;;;;;5.03;4.53;;;17.50;99.90;;;;;;1893352;75;21166;-83
2022/09/24 08:59:27;;;;;;;4.90;4.50;;;17.50;99.90;;;;;;1904171;75;21166;-75
2022/09/24 09:02:26;;;;;;;5.75;5.20;;;17.50;99.90;;;;;;1900817;75;21079;-76
2022/09/24 09:05:23;;;;;;;5.08;4.58;;;17.50;99.90;;;;;;1896823;75;21087;-76
2022/09/24 09:08:18;;;;;;;5.50;5.00;;;17.60;99.90;;;;;;1895310;75;21103;-75
2022/09/24 09:11:14;;;;;;;5.47;4.65;;;17.70;99.90;;;;;;1888726;75;21494;-78
2022/09/24 09:14:09;;;;;;;5.08;4.65;;;17.70;99.90;;;;;;1905707;75;21047;-76
2022/09/24 09:17:03;;;;;;;6.40;5.00;;;17.60;99.90;;;;;;1901451;75;21088;-76
2022/09/24 09:19:58;;;;;;;5.90;5.37;;;17.50;99.90;;;;;;1904579;75;21135;-76
2022/09/24 09:22:53;;;;;;;6.00;5.50;;;17.40;99.90;;;;;;1905951;75;21070;-76
2022/09/24 09:25:52;;;;;;;6.15;5.53;;;17.30;99.90;;;;;;1888955;75;21133;-76
2022/09/24 09:28:47;;;;;;;6.10;5.50;;;17.30;99.90;;;;;;1894617;75;21091;-76
2022/09/24 09:31:44;;;;;;;5.97;5.47;;;17.30;99.90;;;;;;1898613;75;21458;-76
2022/09/24 09:34:47;;;;;;;6.75;6.10;;;17.30;99.90;;;;;;1893287;75;21075;-76
2022/09/24 09:37:42;;;;;;;7.15;6.45;;;17.30;99.90;;;;;;1894951;75;21063;-77
2022/09/24 09:40:37;;;;;;;6.00;5.50;;;17.30;99.90;;;;;;1916955;75;21059;-77
2022/09/24 09:43:29;;;;;;;6.53;5.90;;;17.40;99.90;;;;;;1894844;75;21060;-77
2022/09/24 09:46:24;;;;;;;6.05;5.47;;;17.40;99.90;;;;;;1917034;75;21048;-76
2022/09/24 09:49:18;;;;;;;6.35;5.75;;;17.50;99.90;;;;;;1891073;75;21147;-84
2022/09/24 09:52:16;;;;;;;6.08;5.47;;;17.50;99.90;;;;;;1894485;75;21039;-83
2022/09/24 09:55:10;;;;;;;6.45;5.85;;;17.50;99.90;;;;;;1895038;75;21064;-83
2022/09/24 09:58:18;;;;;;;6.70;5.67;;;17.50;99.90;;;;;;1894848;75;21238;-83
2022/09/24 10:01:12;;;;;;;6.65;6.05;;;17.50;99.90;;;;;;1894860;75;21136;-83
2022/09/24 10:04:06;;;;;;;6.90;6.30;;;17.50;99.90;;;;;;1916778;75;21290;-77
2022/09/24 10:07:07;;;;;;;6.62;6.00;;;17.50;99.90;;;;;;1903963;75;21082;-76
2022/09/24 10:10:05;;;;;;;6.28;5.78;;;17.70;99.90;;;;;;1906066;75;21551;-77
2022/09/24 10:13:08;;;;;;;6.00;5.40;;;17.90;99.90;;;;;;1872276;75;21617;-77
2022/09/24 10:16:02;;;;;;;5.97;5.37;;;18.10;99.90;;;;;;1887016;75;21133;-77
2022/09/24 10:18:53;;;;;;;7.05;5.50;;;18.10;99.90;;;;;;1884371;75;21565;-83
2022/09/24 10:21:45;;;;;;;5.33;4.83;;;18.20;99.90;;;;;;1872069;77;21535;-83
2022/09/24 10:24:39;;;;;;;5.75;5.08;;;18.30;99.90;;;;;;1906249;75;21105;-83
2022/09/24 10:27:34;;;;;;;5.65;5.12;;;18.40;99.90;;;;;;1906118;75;21054;-83
2022/09/24 10:30:35;;;;;;;6.15;5.55;;;18.50;99.90;;;;;;1906003;75;21082;-84
2022/09/24 10:33:27;;;;;;;5.25;4.85;;;18.60;99.90;;;;;;1902840;75;21197;-83
2022/09/24 10:36:21;;;;;;;5.95;5.35;;;18.80;99.90;;;;;;1902259;75;21063;-83
2022/09/24 10:39:15;;;;;;;5.37;4.87;;;18.70;99.90;;;;;;1906169;75;21119;-83
2022/09/24 10:42:06;;;;;;;5.10;4.60;;;18.80;99.90;;;;;;1910972;75;21121;-77
2022/09/24 10:45:00;;;;;;;6.67;4.90;;;18.90;99.90;;;;;;1894883;75;21102;-78
2022/09/24 10:47:56;;;;;;;4.70;4.30;;;19.00;99.90;;;;;;1902194;75;21579;-76
2022/09/24 10:50:53;;;;;;;3.55;3.25;;;19.20;99.90;;;;;;1897453;75;21090;-76
2022/09/24 10:53:50;;;;;;;5.33;3.83;;;19.50;99.90;;;;;;1886554;74;21123;-77
2022/09/24 10:56:45;;;;;;;4.92;3.90;;;19.70;99.90;;;;;;1879806;75;21047;-77
2022/09/24 10:59:45;;;;;;;3.47;3.17;;;19.80;99.90;;;;;;1893512;75;21102;-77
2022/09/24 11:02:59;;;;;;;3.95;3.47;;;20.00;99.90;;;;;;1865636;77;21106;-77
2022/09/24 11:05:54;;;;;;;4.37;3.98;;;20.00;99.90;;;;;;1904195;75;21090;-78
2022/09/24 11:08:57;;;;;;;3.22;2.92;;;20.20;99.90;;;;;;1887618;75;21137;-76
2022/09/24 11:11:55;;;;;;;4.37;3.92;;;20.40;99.90;;;;;;1897411;75;21098;-77
2022/09/24 11:14:50;;;;;;;;;;;20.60;99.90;;;;;;1887371;75;21047;-77
2022/09/24 11:17:45;;;;;;;3.05;2.75;;;20.50;99.90;;;;;;1906551;75;20211;-82
2022/09/24 11:20:39;;;;;;;3.22;2.87;;;20.50;99.90;;;;;;1893848;75;21116;-82
2022/09/24 11:23:48;;;;;;;2.60;2.40;;;20.70;99.90;;;;;;1883810;75;21088;-82
2022/09/24 11:26:47;;;;;;;3.05;2.30;;;20.20;99.90;;;;;;1883698;75;21060;-82
2022/09/24 11:29:46;;;;;;;2.95;2.33;;;20.40;99.90;;;;;;1871529;75;21168;-82
2022/09/24 11:32:43;;;;;;;3.35;2.50;;;20.50;99.90;;;;;;1882026;75;21125;-82
2022/09/24 11:36:04;;;;;;;3.58;2.90;;;20.70;99.90;;;;;;1898222;75;21084;-81
2022/09/24 11:39:07;;;;;;;3.35;3.05;;;20.80;99.90;;;;;;1883706;74;21056;-82
2022/09/24 11:42:03;;;;;;;2.98;2.67;;;20.70;99.90;;;;;;1889825;75;21128;-82
2022/09/24 11:45:19;;;;;;;2.65;2.45;;;20.30;99.90;;;;;;1871572;75;21071;-81
2022/09/24 11:48:19;;;;;;;2.58;2.37;;;20.00;99.90;;;;;;1884194;75;21059;-81
2022/09/24 11:53:51;;;;;;;3.00;2.30;;;20.30;99.90;;;;;;1937118;72;26702;-76
2022/09/24 11:56:46;;;;;;;2.37;2.05;;;20.40;99.90;;;;;;1893044;70;21183;-76
2022/09/24 11:59:42;;;;;;;2.52;2.33;;;20.30;99.90;;;;;;1862326;76;21115;-77
2022/09/24 12:02:37;;;;;;;1.62;1.52;;;20.10;99.90;;;;;;1852103;76;21136;-76
2022/09/24 12:05:32;;;;;;;3.65;2.00;;;20.00;99.90;;;;;;1865565;76;21116;-76
2022/09/24 12:08:28;;;;;;;2.60;2.20;;;19.80;99.90;;;;;;1873617;76;21146;-76
2022/09/24 12:11:23;;;;;;;2.35;2.10;;;19.90;99.90;;;;;;1873390;76;21559;-76
2022/09/24 12:14:18;;;;;;;2.40;2.20;;;19.90;99.90;;;;;;1873274;76;21045;-76
2022/09/24 12:17:12;;;;;;;2.17;1.92;;;20.00;99.90;;;;;;1870829;76;21048;-76
2022/09/24 12:20:08;;;;;;;1.65;1.55;;;20.00;99.90;;;;;;1848986;76;21053;-76
2022/09/24 12:23:03;;;;;;;2.12;1.67;;;20.10;99.90;;;;;;1862405;76;21150;-77
2022/09/24 12:25:55;;;;;;;2.95;1.90;;;20.00;99.90;;;;;;1856453;76;21179;-77
2022/09/24 12:35:18;;;;;;;1.80;1.70;;;21.10;99.90;;;;;;1883705;76;21111;-77
2022/09/24 12:38:13;;;;;;;2.80;2.05;;;21.50;99.90;;;;;;1866817;76;21151;-77
2022/09/24 12:41:21;;;;;;;2.33;1.70;;;21.60;99.90;;;;;;1832602;77;21143;-77
2022/09/24 12:44:16;;;;;;;1.92;1.72;;;21.60;99.90;;;;;;1842749;76;21096;-76
2022/09/24 12:47:17;;;;;;;3.42;1.50;;;21.60;99.90;;;;;;1875732;76;21182;-77
2022/09/24 12:50:19;;;;;;;2.40;1.60;;;21.60;99.90;;;;;;1873347;76;21171;-77
2022/09/24 12:53:24;;;;;;;1.20;1.10;;;21.60;99.90;;;;;;1875662;76;21117;-76
2022/09/24 12:56:18;;;;;;;1.32;1.10;;;21.60;99.90;;;;;;1861683;76;21146;-77
2022/09/24 12:59:24;;;;;;;1.27;1.02;;;21.60;99.90;;;;;;1866997;76;21079;-76
2022/09/24 13:02:18;;;;;;;1.07;1.07;;;21.60;99.90;;;;;;1867598;76;21048;-77
2022/09/24 13:05:21;;;;;;;1.45;0.93;;;21.60;99.90;;;;;;1831331;77;21209;-77
2022/09/24 13:08:26;;;;;;;1.20;1.10;;;21.70;99.90;;;;;;1856986;76;21085;-77
2022/09/24 13:11:31;;;;;;;2.12;1.00;;;21.80;99.90;;;;;;1861889;76;21037;-77
2022/09/24 13:14:28;;;;;;;1.25;1.10;;;21.80;99.90;;;;;;1879237;76;21077;-77
2022/09/24 13:17:18;;;;;;;3.42;1.40;;;21.70;99.90;;;;;;1872258;76;21044;-77
2022/09/24 13:20:15;;;;;;;2.77;1.20;;;21.60;99.90;;;;;;1850990;76;21045;-77
2022/09/24 13:23:30;;;;;;;1.25;0.95;;;21.70;99.90;;;;;;1831712;77;21311;-77
2022/09/24 13:26:32;;;;;;;2.08;1.17;;;21.60;99.90;;;;;;1831967;77;21526;-76
2022/09/24 13:29:28;;;;;;;1.42;1.00;;;21.50;99.90;;;;;;1851055;77;21144;-76
2022/09/24 13:32:21;;;;;;;1.45;1.35;;;21.50;99.90;;;;;;1872813;76;21159;-77
2022/09/24 13:35:16;;;;;;;2.22;1.32;;;21.30;99.90;;;;;;1872281;76;21092;-76
2022/09/24 13:38:13;;;;;;;3.27;1.50;;;21.30;99.90;;;;;;1868840;76;21112;-76
2022/09/24 13:41:08;;;;;;;1.12;1.02;;;21.30;99.90;;;;;;1869530;76;21638;-76
2022/09/24 13:44:03;;;;;;;1.50;1.20;;;21.20;99.90;;;;;;1860713;76;21150;-77
2022/09/24 13:46:59;;;;;;;1.10;1.00;;;21.20;99.90;;;;;;1848426;76;21131;-77
2022/09/24 13:49:52;;;;;;;1.17;1.00;;;21.40;99.90;;;;;;1842608;76;21110;-77
2022/09/24 13:52:54;;;;;;;1.72;1.10;;;21.50;99.90;;;;;;1864188;76;21174;-76
2022/09/24 13:55:47;;;;;;;1.10;1.00;;;21.60;99.90;;;;;;1848862;76;21074;-76
2022/09/24 13:58:41;;;;;;;1.87;1.07;;;21.60;99.90;;;;;;1864228;76;21080;-76
2022/09/24 14:01:38;;;;;;;1.07;0.98;;;21.70;99.90;;;;;;1862065;76;21699;-78
2022/09/24 14:04:30;;;;;;;1.27;1.10;;;21.70;99.90;;;;;;1857363;77;21221;-76
2022/09/24 14:07:22;;;;;;;1.10;1.00;;;21.70;99.90;;;;;;1873368;76;21045;-76
2022/09/24 14:13:20;;;;;;;0.90;0.70;;;23.80;99.90;;;;;;1913889;72;22172;-76
2022/09/24 14:16:15;;;;;;;0.88;0.80;;;25.20;99.90;;;;;;1890313;75;21255;-76
2022/09/24 14:19:08;;;;;;;1.15;0.95;;;26.20;99.90;;;;;;1893931;75;21180;-76
2022/09/24 14:22:01;;;;;;;1.10;1.00;;;27.30;99.90;;;;;;1898416;75;21402;-76
2022/09/24 14:24:56;;;;;;;1.00;0.80;;;28.30;99.90;;;;;;1884525;76;21096;-77
2022/09/24 14:27:50;;;;;;;1.00;0.90;;;29.30;99.90;;;;;;1877821;75;21157;-76
2022/09/24 14:30:48;;;;;;;1.00;0.80;;;29.70;99.90;;;;;;1885335;75;21133;-76
2022/09/24 14:33:41;;;;;;;0.75;0.75;;;30.00;99.90;;;;;;1893670;75;21151;-76
2022/09/24 14:36:36;;;;;;;0.75;0.70;;;30.40;99.90;;;;;;1883767;76;21138;-76
2022/09/24 14:39:29;;;;;;;1.15;0.80;;;30.80;99.90;;;;;;1894228;75;21673;-76
2022/09/24 14:42:24;;;;;;;1.02;0.68;;;29.90;99.90;;;;;;1900891;75;21074;-77
2022/09/24 14:45:21;;;;;;;0.82;0.78;;;29.70;99.90;;;;;;1902202;75;21083;-76
2022/09/24 14:48:23;;;;;;;1.17;0.70;;;30.70;98.70;;;;;;1888063;75;21628;-77
2022/09/24 14:51:27;;;;;;;0.65;0.65;;;30.20;97.70;;;;;;1892896;75;21066;-77
2022/09/24 14:54:27;;;;;;;1.42;0.95;;;28.60;98.70;;;;;;1901618;75;21199;-77
2022/09/24 14:57:25;;;;;;;1.30;1.10;;;27.30;99.90;;;;;;1901773;75;21603;-77
2022/09/24 15:00:26;;;;;;;1.32;0.98;;;26.40;99.90;;;;;;1916620;74;21052;-77
2022/09/24 15:03:19;;;;;;;1.12;0.80;;;25.40;99.90;;;;;;1881130;75;21597;-77
2022/09/24 15:06:21;;;;;;;1.25;1.00;;;25.10;99.90;;;;;;1900946;75;21097;-76
2022/09/24 15:09:21;;;;;;;0.80;0.80;;;25.50;99.90;;;;;;1890700;75;21170;-76
2022/09/24 15:12:20;;;;;;;0.90;0.80;;;27.70;99.90;;;;;;1893574;75;21102;-76
2022/09/24 15:15:30;;;;;;;0.60;0.60;;;30.50;99.90;;;;;;1887356;75;21106;-76
2022/09/24 15:18:22;;;;;;;1.05;0.68;;;31.00;96.00;;;;;;1881580;76;21062;-77
2022/09/24 15:21:13;;;;;;;0.80;0.80;;;30.60;94.30;;;;;;1906116;75;21224;-76
2022/09/24 15:24:12;;;;;;;1.17;1.07;;;31.50;93.80;;;;;;1887084;75;21063;-77
2022/09/24 15:27:21;;;;;;;0.90;0.80;;;32.50;92.60;;;;;;1891589;75;21054;-77
2022/09/24 15:30:16;;;;;;;1.02;0.85;;;31.60;91.30;;;;;;1883003;76;21113;-77
2022/09/24 15:33:13;;;;;;;0.95;0.90;;;30.00;92.60;;;;;;1883906;76;21110;-77
2022/09/24 15:36:05;;;;;;;1.37;1.02;;;27.40;97.00;;;;;;1872169;77;21106;-77
2022/09/24 15:38:59;;;;;;;1.80;0.90;;;27.60;98.40;;;;;;1870808;77;21164;-77
2022/09/24 15:41:51;;;;;;;1.30;1.10;;;27.80;98.20;;;;;;1886332;75;21066;-77
2022/09/24 15:44:44;;;;;;;4.30;3.33;;;27.80;98.30;;;;;;1895068;75;21170;-77
2022/09/24 15:47:36;;;;;;;1.12;1.00;;;28.60;98.40;;;;;;1872139;77;21133;-77
2022/09/24 15:50:28;;;;;;;0.90;0.90;;;28.40;97.10;;;;;;1908910;75;21164;-77
2022/09/24 15:53:23;;;;;;;2.60;1.00;;;26.40;99.70;;;;;;1877996;75;21105;-77
2022/09/24 15:56:16;;;;;;;1.17;0.93;;;24.90;99.90;;;;;;1905214;75;21129;-76
2022/09/24 15:59:12;;;;;;;1.17;0.95;;;24.40;99.90;;;;;;1879804;76;21066;-77
2022/09/24 16:02:06;;;;;;;1.47;0.93;;;25.40;99.90;;;;;;1883835;76;21105;-76
2022/09/24 16:04:58;;;;;;;1.15;1.00;;;25.60;99.90;;;;;;1883478;76;21188;-76
2022/09/24 16:07:51;;;;;;;1.05;0.90;;;24.70;99.90;;;;;;1883709;76;21509;-76
2022/09/24 16:10:44;;;;;;;0.98;0.98;;;23.90;99.90;;;;;;1871258;77;21141;-76